sensor_id;sensor_type;location;lat;lon;timestamp;P1;durP1;ratioP1;P2;durP2;ratioP2
6537;SDS011;3302;52.508;13.454;2022-09-21T00:00:02;0.20;;;0.20;;
6537;SDS011;3302;52.508;13.454;2022-09-21T00:02:29;0.17;;;0.17;;
6537;SDS011;3302;52.508;13.454;2022-09-21T00:04:54;0.30;;;0.30;;
6537;SDS011;3302;52.508;13.454;2022-09-21T00:07:20;0.20;;;0.20;;
6537;SDS011;3302;52.508;13.454;2022-09-21T00:09:46;0.40;;;0.40;;
6537;SDS011;3302;52.508;13.454;2022-09-21T00:12:12;0.10;;;0.10;;
6537;SDS011;3302;52.508;13.454;2022-09-21T00:14:37;0.20;;;0.20;;
6537;SDS011;3302;52.508;13.454;2022-09-21T00:17:03;0.30;;;0.30;;
6537;SDS011;3302;52.508;13.454;2022-09-21T00:19:29;0.17;;;0.17;;
6537;SDS011;3302;52.508;13.454;2022-09-21T00:21:55;0.20;;;0.20;;
6537;SDS011;3302;52.508;13.454;2022-09-21T00:24:21;0.20;;;0.20;;
6537;SDS011;3302;52.508;13.454;2022-09-21T00:26:47;0.20;;;0.20;;
6537;SDS011;3302;52.508;13.454;2022-09-21T00:29:12;0.20;;;0.20;;
6537;SDS011;3302;52.508;13.454;2022-09-21T00:31:38;0.20;;;0.20;;
6537;SDS011;3302;52.508;13.454;2022-09-21T00:34:04;0.27;;;0.27;;
6537;SDS011;3302;52.508;13.454;2022-09-21T00:36:32;0.13;;;0.13;;
6537;SDS011;3302;52.508;13.454;2022-09-21T00:38:58;0.10;;;0.10;;
6537;SDS011;3302;52.508;13.454;2022-09-21T00:41:26;0.20;;;0.20;;
6537;SDS011;3302;52.508;13.454;2022-09-21T00:46:44;0.30;;;0.30;;
6537;SDS011;3302;52.508;13.454;2022-09-21T00:49:12;0.20;;;0.20;;
6537;SDS011;3302;52.508;13.454;2022-09-21T00:51:39;0.20;;;0.20;;
6537;SDS011;3302;52.508;13.454;2022-09-21T00:54:08;0.10;;;0.10;;
6537;SDS011;3302;52.508;13.454;2022-09-21T00:56:39;0.10;;;0.10;;
6537;SDS011;3302;52.508;13.454;2022-09-21T00:59:06;0.10;;;0.10;;
6537;SDS011;3302;52.508;13.454;2022-09-21T01:01:33;0.20;;;0.20;;
6537;SDS011;3302;52.508;13.454;2022-09-21T01:04:00;0.10;;;0.10;;
6537;SDS011;3302;52.508;13.454;2022-09-21T01:06:27;0.17;;;0.17;;
6537;SDS011;3302;52.508;13.454;2022-09-21T01:08:53;0.20;;;0.20;;
6537;SDS011;3302;52.508;13.454;2022-09-21T01:19:43;0.20;;;0.20;;
6537;SDS011;3302;52.508;13.454;2022-09-21T01:30:45;0.20;;;0.20;;
6537;SDS011;3302;52.508;13.454;2022-09-21T01:36:19;0.30;;;0.30;;
6537;SDS011;3302;52.508;13.454;2022-09-21T01:38:53;0.20;;;0.20;;
6537;SDS011;3302;52.508;13.454;2022-09-21T01:41:23;0.10;;;0.10;;
6537;SDS011;3302;52.508;13.454;2022-09-21T01:43:52;0.20;;;0.20;;
6537;SDS011;3302;52.508;13.454;2022-09-21T01:46:21;0.20;;;0.20;;
6537;SDS011;3302;52.508;13.454;2022-09-21T01:48:55;0.20;;;0.20;;
6537;SDS011;3302;52.508;13.454;2022-09-21T01:51:25;0.20;;;0.20;;
6537;SDS011;3302;52.508;13.454;2022-09-21T01:53:56;0.10;;;0.10;;
6537;SDS011;3302;52.508;13.454;2022-09-21T01:56:35;0.20;;;0.20;;
6537;SDS011;3302;52.508;13.454;2022-09-21T01:59:09;0.20;;;0.20;;
6537;SDS011;3302;52.508;13.454;2022-09-21T02:01:55;0.20;;;0.20;;
6537;SDS011;3302;52.508;13.454;2022-09-21T02:04:25;0.13;;;0.13;;
6537;SDS011;3302;52.508;13.454;2022-09-21T02:06:52;0.10;;;0.10;;
6537;SDS011;3302;52.508;13.454;2022-09-21T02:09:18;0.10;;;0.10;;
6537;SDS011;3302;52.508;13.454;2022-09-21T02:11:44;0.20;;;0.20;;
6537;SDS011;3302;52.508;13.454;2022-09-21T02:14:10;1.17;;;1.07;;
6537;SDS011;3302;52.508;13.454;2022-09-21T02:28:48;0.20;;;0.20;;
6537;SDS011;3302;52.508;13.454;2022-09-21T02:31:54;0.20;;;0.20;;
6537;SDS011;3302;52.508;13.454;2022-09-21T02:37:20;0.20;;;0.20;;
6537;SDS011;3302;52.508;13.454;2022-09-21T02:39:59;0.30;;;0.30;;
6537;SDS011;3302;52.508;13.454;2022-09-21T02:42:32;0.20;;;0.20;;
6537;SDS011;3302;52.508;13.454;2022-09-21T02:50:44;0.20;;;0.20;;
6537;SDS011;3302;52.508;13.454;2022-09-21T02:53:26;0.20;;;0.20;;
6537;SDS011;3302;52.508;13.454;2022-09-21T02:55:56;0.20;;;0.20;;
6537;SDS011;3302;52.508;13.454;2022-09-21T02:58:27;0.20;;;0.20;;
6537;SDS011;3302;52.508;13.454;2022-09-21T03:00:55;0.20;;;0.20;;
6537;SDS011;3302;52.508;13.454;2022-09-21T03:03:22;0.20;;;0.20;;
6537;SDS011;3302;52.508;13.454;2022-09-21T03:05:50;0.20;;;0.20;;
6537;SDS011;3302;52.508;13.454;2022-09-21T03:08:18;0.20;;;0.20;;
6537;SDS011;3302;52.508;13.454;2022-09-21T03:10:44;0.17;;;0.17;;
6537;SDS011;3302;52.508;13.454;2022-09-21T03:13:11;0.20;;;0.20;;
6537;SDS011;3302;52.508;13.454;2022-09-21T03:15:37;0.20;;;0.20;;
6537;SDS011;3302;52.508;13.454;2022-09-21T03:18:05;0.13;;;0.13;;
6537;SDS011;3302;52.508;13.454;2022-09-21T03:20:34;0.30;;;0.30;;
6537;SDS011;3302;52.508;13.454;2022-09-21T03:23:00;0.20;;;0.20;;
6537;SDS011;3302;52.508;13.454;2022-09-21T03:25:27;0.77;;;0.77;;
6537;SDS011;3302;52.508;13.454;2022-09-21T03:27:53;0.20;;;0.20;;
6537;SDS011;3302;52.508;13.454;2022-09-21T03:30:20;0.20;;;0.20;;
6537;SDS011;3302;52.508;13.454;2022-09-21T03:32:50;0.20;;;0.20;;
6537;SDS011;3302;52.508;13.454;2022-09-21T03:35:17;0.20;;;0.20;;
6537;SDS011;3302;52.508;13.454;2022-09-21T03:37:44;0.17;;;0.17;;
6537;SDS011;3302;52.508;13.454;2022-09-21T03:40:10;0.20;;;0.20;;
6537;SDS011;3302;52.508;13.454;2022-09-21T03:42:37;0.20;;;0.20;;
6537;SDS011;3302;52.508;13.454;2022-09-21T03:45:04;0.50;;;0.50;;
6537;SDS011;3302;52.508;13.454;2022-09-21T03:47:30;0.13;;;0.13;;
6537;SDS011;3302;52.508;13.454;2022-09-21T03:49:56;0.10;;;0.10;;
6537;SDS011;3302;52.508;13.454;2022-09-21T03:52:22;0.20;;;0.20;;
6537;SDS011;3302;52.508;13.454;2022-09-21T03:54:48;0.20;;;0.20;;
6537;SDS011;3302;52.508;13.454;2022-09-21T03:57:13;0.10;;;0.10;;
6537;SDS011;3302;52.508;13.454;2022-09-21T03:59:39;0.20;;;0.20;;
6537;SDS011;3302;52.508;13.454;2022-09-21T04:02:05;0.10;;;0.10;;
6537;SDS011;3302;52.508;13.454;2022-09-21T04:04:31;0.50;;;0.50;;
6537;SDS011;3302;52.508;13.454;2022-09-21T04:06:57;0.20;;;0.20;;
6537;SDS011;3302;52.508;13.454;2022-09-21T04:09:23;0.20;;;0.20;;
6537;SDS011;3302;52.508;13.454;2022-09-21T04:11:49;0.30;;;0.30;;
6537;SDS011;3302;52.508;13.454;2022-09-21T04:14:16;0.10;;;0.10;;
6537;SDS011;3302;52.508;13.454;2022-09-21T04:16:42;0.20;;;0.20;;
6537;SDS011;3302;52.508;13.454;2022-09-21T04:19:07;0.20;;;0.20;;
6537;SDS011;3302;52.508;13.454;2022-09-21T04:21:33;0.40;;;0.40;;
6537;SDS011;3302;52.508;13.454;2022-09-21T04:23:59;0.20;;;0.20;;
6537;SDS011;3302;52.508;13.454;2022-09-21T04:26:30;0.20;;;0.20;;
6537;SDS011;3302;52.508;13.454;2022-09-21T04:28:58;0.20;;;0.20;;
6537;SDS011;3302;52.508;13.454;2022-09-21T04:31:24;0.20;;;0.20;;
6537;SDS011;3302;52.508;13.454;2022-09-21T04:33:51;0.20;;;0.20;;
6537;SDS011;3302;52.508;13.454;2022-09-21T04:36:19;0.20;;;0.20;;
6537;SDS011;3302;52.508;13.454;2022-09-21T04:38:46;0.20;;;0.20;;
6537;SDS011;3302;52.508;13.454;2022-09-21T04:41:12;0.20;;;0.20;;
6537;SDS011;3302;52.508;13.454;2022-09-21T04:43:43;0.20;;;0.20;;
6537;SDS011;3302;52.508;13.454;2022-09-21T04:46:11;0.20;;;0.20;;
6537;SDS011;3302;52.508;13.454;2022-09-21T04:48:38;0.20;;;0.20;;
6537;SDS011;3302;52.508;13.454;2022-09-21T04:51:04;0.23;;;0.23;;
6537;SDS011;3302;52.508;13.454;2022-09-21T04:53:35;0.13;;;0.13;;
6537;SDS011;3302;52.508;13.454;2022-09-21T04:56:02;0.10;;;0.10;;
6537;SDS011;3302;52.508;13.454;2022-09-21T04:58:29;0.20;;;0.20;;
6537;SDS011;3302;52.508;13.454;2022-09-21T05:00:54;0.20;;;0.20;;
6537;SDS011;3302;52.508;13.454;2022-09-21T05:03:21;0.23;;;0.23;;
6537;SDS011;3302;52.508;13.454;2022-09-21T05:05:48;0.20;;;0.20;;
6537;SDS011;3302;52.508;13.454;2022-09-21T05:08:15;0.20;;;0.20;;
6537;SDS011;3302;52.508;13.454;2022-09-21T05:10:42;0.30;;;0.30;;
6537;SDS011;3302;52.508;13.454;2022-09-21T05:13:08;0.20;;;0.20;;
6537;SDS011;3302;52.508;13.454;2022-09-21T05:15:38;0.20;;;0.20;;
6537;SDS011;3302;52.508;13.454;2022-09-21T05:18:03;0.20;;;0.20;;
6537;SDS011;3302;52.508;13.454;2022-09-21T05:20:29;0.97;;;0.97;;
6537;SDS011;3302;52.508;13.454;2022-09-21T05:22:58;0.20;;;0.20;;
6537;SDS011;3302;52.508;13.454;2022-09-21T05:25:25;1.30;;;1.30;;
6537;SDS011;3302;52.508;13.454;2022-09-21T05:27:51;0.60;;;0.60;;
6537;SDS011;3302;52.508;13.454;2022-09-21T05:30:17;0.50;;;0.50;;
6537;SDS011;3302;52.508;13.454;2022-09-21T05:32:59;0.20;;;0.20;;
6537;SDS011;3302;52.508;13.454;2022-09-21T05:35:34;0.20;;;0.20;;
6537;SDS011;3302;52.508;13.454;2022-09-21T05:38:17;0.20;;;0.20;;
6537;SDS011;3302;52.508;13.454;2022-09-21T05:40:44;0.30;;;0.30;;
6537;SDS011;3302;52.508;13.454;2022-09-21T05:43:11;0.13;;;0.13;;
6537;SDS011;3302;52.508;13.454;2022-09-21T05:45:39;0.23;;;0.23;;
6537;SDS011;3302;52.508;13.454;2022-09-21T05:56:50;0.67;;;0.67;;
6537;SDS011;3302;52.508;13.454;2022-09-21T06:01:59;0.10;;;0.10;;
6537;SDS011;3302;52.508;13.454;2022-09-21T06:04:36;0.20;;;0.20;;
6537;SDS011;3302;52.508;13.454;2022-09-21T06:07:02;0.20;;;0.20;;
6537;SDS011;3302;52.508;13.454;2022-09-21T06:09:28;0.20;;;0.20;;
6537;SDS011;3302;52.508;13.454;2022-09-21T06:11:54;0.20;;;0.20;;
6537;SDS011;3302;52.508;13.454;2022-09-21T06:14:20;0.20;;;0.20;;
6537;SDS011;3302;52.508;13.454;2022-09-21T06:16:49;0.30;;;0.30;;
6537;SDS011;3302;52.508;13.454;2022-09-21T06:19:16;0.20;;;0.20;;
6537;SDS011;3302;52.508;13.454;2022-09-21T06:21:42;0.20;;;0.20;;
6537;SDS011;3302;52.508;13.454;2022-09-21T06:24:08;0.20;;;0.20;;
6537;SDS011;3302;52.508;13.454;2022-09-21T06:26:34;0.23;;;0.23;;
6537;SDS011;3302;52.508;13.454;2022-09-21T06:28:59;0.10;;;0.10;;
6537;SDS011;3302;52.508;13.454;2022-09-21T06:31:25;1.90;;;1.80;;
6537;SDS011;3302;52.508;13.454;2022-09-21T06:33:52;0.20;;;0.20;;
6537;SDS011;3302;52.508;13.454;2022-09-21T06:36:18;0.20;;;0.20;;
6537;SDS011;3302;52.508;13.454;2022-09-21T06:38:43;0.10;;;0.10;;
6537;SDS011;3302;52.508;13.454;2022-09-21T06:41:10;0.20;;;0.20;;
6537;SDS011;3302;52.508;13.454;2022-09-21T06:43:36;0.30;;;0.30;;
6537;SDS011;3302;52.508;13.454;2022-09-21T06:46:02;0.30;;;0.30;;
6537;SDS011;3302;52.508;13.454;2022-09-21T06:48:29;0.20;;;0.20;;
6537;SDS011;3302;52.508;13.454;2022-09-21T06:51:00;0.20;;;0.20;;
6537;SDS011;3302;52.508;13.454;2022-09-21T06:53:27;0.10;;;0.10;;
6537;SDS011;3302;52.508;13.454;2022-09-21T06:56:04;0.20;;;0.20;;
6537;SDS011;3302;52.508;13.454;2022-09-21T06:58:31;0.20;;;0.20;;
6537;SDS011;3302;52.508;13.454;2022-09-21T07:01:08;0.30;;;0.30;;
6537;SDS011;3302;52.508;13.454;2022-09-21T07:03:36;0.20;;;0.20;;
6537;SDS011;3302;52.508;13.454;2022-09-21T07:06:03;0.10;;;0.10;;
6537;SDS011;3302;52.508;13.454;2022-09-21T07:08:29;0.10;;;0.10;;
6537;SDS011;3302;52.508;13.454;2022-09-21T07:10:59;0.10;;;0.10;;
6537;SDS011;3302;52.508;13.454;2022-09-21T07:13:25;0.80;;;0.80;;
6537;SDS011;3302;52.508;13.454;2022-09-21T07:15:51;0.33;;;0.33;;
6537;SDS011;3302;52.508;13.454;2022-09-21T07:18:17;20.17;;;3.27;;
6537;SDS011;3302;52.508;13.454;2022-09-21T07:20:43;0.30;;;0.30;;
6537;SDS011;3302;52.508;13.454;2022-09-21T07:23:09;0.20;;;0.20;;
6537;SDS011;3302;52.508;13.454;2022-09-21T07:25:36;0.20;;;0.20;;
6537;SDS011;3302;52.508;13.454;2022-09-21T07:28:02;0.30;;;0.30;;
6537;SDS011;3302;52.508;13.454;2022-09-21T07:30:27;0.20;;;0.20;;
6537;SDS011;3302;52.508;13.454;2022-09-21T07:32:53;0.20;;;0.20;;
6537;SDS011;3302;52.508;13.454;2022-09-21T07:35:19;0.20;;;0.20;;
6537;SDS011;3302;52.508;13.454;2022-09-21T07:37:44;0.10;;;0.10;;
6537;SDS011;3302;52.508;13.454;2022-09-21T07:40:10;1.80;;;1.70;;
6537;SDS011;3302;52.508;13.454;2022-09-21T07:42:36;0.20;;;0.20;;
6537;SDS011;3302;52.508;13.454;2022-09-21T07:45:01;0.30;;;0.30;;
6537;SDS011;3302;52.508;13.454;2022-09-21T07:47:27;0.20;;;0.20;;
6537;SDS011;3302;52.508;13.454;2022-09-21T07:49:53;0.37;;;0.37;;
6537;SDS011;3302;52.508;13.454;2022-09-21T07:52:19;0.20;;;0.20;;
6537;SDS011;3302;52.508;13.454;2022-09-21T07:54:46;0.20;;;0.20;;
6537;SDS011;3302;52.508;13.454;2022-09-21T07:57:11;0.30;;;0.30;;
6537;SDS011;3302;52.508;13.454;2022-09-21T07:59:56;0.20;;;0.20;;
6537;SDS011;3302;52.508;13.454;2022-09-21T08:02:22;0.10;;;0.10;;
6537;SDS011;3302;52.508;13.454;2022-09-21T08:04:48;0.20;;;0.20;;
6537;SDS011;3302;52.508;13.454;2022-09-21T08:07:14;0.20;;;0.20;;
6537;SDS011;3302;52.508;13.454;2022-09-21T08:09:40;0.20;;;0.20;;
6537;SDS011;3302;52.508;13.454;2022-09-21T08:12:06;0.20;;;0.20;;
6537;SDS011;3302;52.508;13.454;2022-09-21T08:14:33;0.20;;;0.20;;
6537;SDS011;3302;52.508;13.454;2022-09-21T08:17:00;0.20;;;0.20;;
6537;SDS011;3302;52.508;13.454;2022-09-21T08:19:26;0.20;;;0.20;;
6537;SDS011;3302;52.508;13.454;2022-09-21T08:21:52;1.37;;;1.33;;
6537;SDS011;3302;52.508;13.454;2022-09-21T08:24:18;0.23;;;0.23;;
6537;SDS011;3302;52.508;13.454;2022-09-21T08:26:44;0.27;;;0.27;;
6537;SDS011;3302;52.508;13.454;2022-09-21T08:29:10;0.20;;;0.20;;
6537;SDS011;3302;52.508;13.454;2022-09-21T08:31:38;0.20;;;0.20;;
6537;SDS011;3302;52.508;13.454;2022-09-21T08:34:04;0.20;;;0.20;;
6537;SDS011;3302;52.508;13.454;2022-09-21T08:36:30;0.10;;;0.10;;
6537;SDS011;3302;52.508;13.454;2022-09-21T08:38:56;0.20;;;0.20;;
6537;SDS011;3302;52.508;13.454;2022-09-21T08:41:23;0.20;;;0.20;;
6537;SDS011;3302;52.508;13.454;2022-09-21T08:44:17;0.53;;;0.53;;
6537;SDS011;3302;52.508;13.454;2022-09-21T08:46:48;0.20;;;0.20;;
6537;SDS011;3302;52.508;13.454;2022-09-21T08:49:34;0.23;;;0.23;;
6537;SDS011;3302;52.508;13.454;2022-09-21T08:52:05;0.20;;;0.20;;
6537;SDS011;3302;52.508;13.454;2022-09-21T08:57:25;0.20;;;0.20;;
6537;SDS011;3302;52.508;13.454;2022-09-21T08:59:54;0.43;;;0.43;;
6537;SDS011;3302;52.508;13.454;2022-09-21T09:02:30;0.20;;;0.20;;
6537;SDS011;3302;52.508;13.454;2022-09-21T09:08:17;0.30;;;0.30;;
6537;SDS011;3302;52.508;13.454;2022-09-21T09:11:12;0.20;;;0.20;;
6537;SDS011;3302;52.508;13.454;2022-09-21T09:14:08;0.20;;;0.20;;
6537;SDS011;3302;52.508;13.454;2022-09-21T09:19:15;0.13;;;0.13;;
6537;SDS011;3302;52.508;13.454;2022-09-21T09:21:53;0.97;;;0.97;;
6537;SDS011;3302;52.508;13.454;2022-09-21T09:26:53;0.20;;;0.20;;
6537;SDS011;3302;52.508;13.454;2022-09-21T09:29:28;0.10;;;0.10;;
6537;SDS011;3302;52.508;13.454;2022-09-21T09:31:56;0.20;;;0.20;;
6537;SDS011;3302;52.508;13.454;2022-09-21T09:34:31;0.30;;;0.30;;
6537;SDS011;3302;52.508;13.454;2022-09-21T09:37:04;0.30;;;0.30;;
6537;SDS011;3302;52.508;13.454;2022-09-21T09:39:35;0.97;;;0.97;;
6537;SDS011;3302;52.508;13.454;2022-09-21T09:42:16;0.20;;;0.20;;
6537;SDS011;3302;52.508;13.454;2022-09-21T09:51:08;0.20;;;0.20;;
6537;SDS011;3302;52.508;13.454;2022-09-21T09:53:37;0.20;;;0.20;;
6537;SDS011;3302;52.508;13.454;2022-09-21T09:56:03;0.20;;;0.20;;
6537;SDS011;3302;52.508;13.454;2022-09-21T09:58:34;0.20;;;0.20;;
6537;SDS011;3302;52.508;13.454;2022-09-21T10:01:34;0.20;;;0.20;;
6537;SDS011;3302;52.508;13.454;2022-09-21T10:04:04;0.30;;;0.30;;
6537;SDS011;3302;52.508;13.454;2022-09-21T10:06:32;0.10;;;0.10;;
6537;SDS011;3302;52.508;13.454;2022-09-21T10:08:58;0.30;;;0.30;;
6537;SDS011;3302;52.508;13.454;2022-09-21T10:11:32;0.20;;;0.20;;
6537;SDS011;3302;52.508;13.454;2022-09-21T10:14:07;0.20;;;0.20;;
6537;SDS011;3302;52.508;13.454;2022-09-21T10:16:40;0.20;;;0.20;;
6537;SDS011;3302;52.508;13.454;2022-09-21T10:19:41;0.20;;;0.20;;
6537;SDS011;3302;52.508;13.454;2022-09-21T10:22:00;0.70;;;0.70;;
6537;SDS011;3302;52.508;13.454;2022-09-21T10:24:31;0.30;;;0.30;;
6537;SDS011;3302;52.508;13.454;2022-09-21T10:27:05;0.20;;;0.20;;
6537;SDS011;3302;52.508;13.454;2022-09-21T10:34:37;9.43;;;2.33;;
6537;SDS011;3302;52.508;13.454;2022-09-21T10:42:41;0.20;;;0.20;;
6537;SDS011;3302;52.508;13.454;2022-09-21T10:45:18;0.20;;;0.20;;
6537;SDS011;3302;52.508;13.454;2022-09-21T10:47:46;0.20;;;0.20;;
6537;SDS011;3302;52.508;13.454;2022-09-21T10:50:22;0.20;;;0.20;;
6537;SDS011;3302;52.508;13.454;2022-09-21T10:53:01;0.70;;;0.70;;
6537;SDS011;3302;52.508;13.454;2022-09-21T10:55:41;0.13;;;0.13;;
6537;SDS011;3302;52.508;13.454;2022-09-21T10:58:12;0.30;;;0.30;;
6537;SDS011;3302;52.508;13.454;2022-09-21T11:00:48;0.20;;;0.20;;
6537;SDS011;3302;52.508;13.454;2022-09-21T11:06:08;2.80;;;0.97;;
6537;SDS011;3302;52.508;13.454;2022-09-21T11:08:52;0.20;;;0.20;;
6537;SDS011;3302;52.508;13.454;2022-09-21T11:19:43;0.20;;;0.20;;
6537;SDS011;3302;52.508;13.454;2022-09-21T11:22:38;0.20;;;0.20;;
6537;SDS011;3302;52.508;13.454;2022-09-21T11:30:41;0.20;;;0.20;;
6537;SDS011;3302;52.508;13.454;2022-09-21T11:33:43;0.20;;;0.20;;
6537;SDS011;3302;52.508;13.454;2022-09-21T11:36:17;0.20;;;0.20;;
6537;SDS011;3302;52.508;13.454;2022-09-21T11:39:05;0.20;;;0.20;;
6537;SDS011;3302;52.508;13.454;2022-09-21T11:52:21;0.20;;;0.20;;
6537;SDS011;3302;52.508;13.454;2022-09-21T11:55:22;0.30;;;0.30;;
6537;SDS011;3302;52.508;13.454;2022-09-21T11:58:11;0.20;;;0.20;;
6537;SDS011;3302;52.508;13.454;2022-09-21T12:06:37;0.20;;;0.20;;
6537;SDS011;3302;52.508;13.454;2022-09-21T12:14:36;0.20;;;0.20;;
6537;SDS011;3302;52.508;13.454;2022-09-21T12:17:30;0.20;;;0.20;;
6537;SDS011;3302;52.508;13.454;2022-09-21T12:22:46;0.30;;;0.30;;
6537;SDS011;3302;52.508;13.454;2022-09-21T12:25:15;0.20;;;0.20;;
6537;SDS011;3302;52.508;13.454;2022-09-21T12:28:01;0.20;;;0.20;;
6537;SDS011;3302;52.508;13.454;2022-09-21T12:30:36;0.20;;;0.20;;
6537;SDS011;3302;52.508;13.454;2022-09-21T12:33:14;0.20;;;0.20;;
6537;SDS011;3302;52.508;13.454;2022-09-21T12:35:48;0.30;;;0.30;;
6537;SDS011;3302;52.508;13.454;2022-09-21T12:38:23;0.20;;;0.20;;
6537;SDS011;3302;52.508;13.454;2022-09-21T12:41:01;0.10;;;0.10;;
6537;SDS011;3302;52.508;13.454;2022-09-21T12:46:28;0.20;;;0.20;;
6537;SDS011;3302;52.508;13.454;2022-09-21T12:48:58;0.23;;;0.23;;
6537;SDS011;3302;52.508;13.454;2022-09-21T12:51:30;0.20;;;0.20;;
6537;SDS011;3302;52.508;13.454;2022-09-21T12:54:05;0.20;;;0.20;;
6537;SDS011;3302;52.508;13.454;2022-09-21T12:56:39;0.20;;;0.20;;
6537;SDS011;3302;52.508;13.454;2022-09-21T12:59:29;0.20;;;0.20;;
6537;SDS011;3302;52.508;13.454;2022-09-21T13:09:57;0.20;;;0.20;;
6537;SDS011;3302;52.508;13.454;2022-09-21T13:12:27;0.20;;;0.20;;
6537;SDS011;3302;52.508;13.454;2022-09-21T13:15:02;0.30;;;0.30;;
6537;SDS011;3302;52.508;13.454;2022-09-21T13:17:37;1.37;;;1.20;;
6537;SDS011;3302;52.508;13.454;2022-09-21T13:20:25;1.30;;;1.20;;
6537;SDS011;3302;52.508;13.454;2022-09-21T13:22:50;1.37;;;1.10;;
6537;SDS011;3302;52.508;13.454;2022-09-21T13:25:25;1.50;;;1.07;;
6537;SDS011;3302;52.508;13.454;2022-09-21T13:36:40;2.53;;;2.20;;
6537;SDS011;3302;52.508;13.454;2022-09-21T13:41:33;1.57;;;1.40;;
6537;SDS011;3302;52.508;13.454;2022-09-21T13:44:04;2.13;;;1.30;;
6537;SDS011;3302;52.508;13.454;2022-09-21T13:46:47;2.63;;;1.27;;
6537;SDS011;3302;52.508;13.454;2022-09-21T13:49:20;3.30;;;1.80;;
6537;SDS011;3302;52.508;13.454;2022-09-21T13:51:57;2.00;;;1.40;;
6537;SDS011;3302;52.508;13.454;2022-09-21T13:54:37;2.00;;;1.60;;
6537;SDS011;3302;52.508;13.454;2022-09-21T13:57:18;3.57;;;1.80;;
6537;SDS011;3302;52.508;13.454;2022-09-21T14:00:03;1.83;;;1.67;;
6537;SDS011;3302;52.508;13.454;2022-09-21T14:02:36;2.20;;;1.60;;
6537;SDS011;3302;52.508;13.454;2022-09-21T14:10:30;2.13;;;1.40;;
6537;SDS011;3302;52.508;13.454;2022-09-21T14:12:58;1.30;;;1.20;;
6537;SDS011;3302;52.508;13.454;2022-09-21T14:15:30;1.30;;;1.20;;
6537;SDS011;3302;52.508;13.454;2022-09-21T14:20:36;1.77;;;1.23;;
6537;SDS011;3302;52.508;13.454;2022-09-21T14:28:18;1.90;;;1.40;;
6537;SDS011;3302;52.508;13.454;2022-09-21T14:30:57;1.60;;;1.20;;
6537;SDS011;3302;52.508;13.454;2022-09-21T14:33:29;2.17;;;1.10;;
6537;SDS011;3302;52.508;13.454;2022-09-21T14:35:59;1.80;;;1.33;;
6537;SDS011;3302;52.508;13.454;2022-09-21T14:38:34;1.60;;;1.30;;
6537;SDS011;3302;52.508;13.454;2022-09-21T14:41:07;1.47;;;1.20;;
6537;SDS011;3302;52.508;13.454;2022-09-21T14:43:34;1.67;;;1.20;;
6537;SDS011;3302;52.508;13.454;2022-09-21T15:01:59;1.43;;;1.10;;
6537;SDS011;3302;52.508;13.454;2022-09-21T15:04:40;1.70;;;1.50;;
6537;SDS011;3302;52.508;13.454;2022-09-21T15:10:49;1.57;;;1.07;;
6537;SDS011;3302;52.508;13.454;2022-09-21T15:13:36;1.33;;;1.10;;
6537;SDS011;3302;52.508;13.454;2022-09-21T15:16:18;1.33;;;0.90;;
6537;SDS011;3302;52.508;13.454;2022-09-21T15:18:50;1.70;;;1.30;;
6537;SDS011;3302;52.508;13.454;2022-09-21T15:21:29;1.50;;;1.20;;
6537;SDS011;3302;52.508;13.454;2022-09-21T15:23:57;1.60;;;1.13;;
6537;SDS011;3302;52.508;13.454;2022-09-21T15:26:25;1.63;;;1.30;;
6537;SDS011;3302;52.508;13.454;2022-09-21T15:28:55;1.60;;;0.97;;
6537;SDS011;3302;52.508;13.454;2022-09-21T15:31:35;1.47;;;1.20;;
6537;SDS011;3302;52.508;13.454;2022-09-21T15:34:03;4.00;;;2.20;;
6537;SDS011;3302;52.508;13.454;2022-09-21T15:36:30;1.20;;;1.03;;
6537;SDS011;3302;52.508;13.454;2022-09-21T15:38:59;2.20;;;1.33;;
6537;SDS011;3302;52.508;13.454;2022-09-21T15:44:05;1.83;;;1.37;;
6537;SDS011;3302;52.508;13.454;2022-09-21T15:46:41;1.53;;;1.00;;
6537;SDS011;3302;52.508;13.454;2022-09-21T15:49:12;2.43;;;1.10;;
6537;SDS011;3302;52.508;13.454;2022-09-21T15:51:40;2.23;;;1.17;;
6537;SDS011;3302;52.508;13.454;2022-09-21T15:56:59;3.10;;;1.13;;
6537;SDS011;3302;52.508;13.454;2022-09-21T15:59:27;2.07;;;1.40;;
6537;SDS011;3302;52.508;13.454;2022-09-21T16:01:55;1.50;;;1.20;;
6537;SDS011;3302;52.508;13.454;2022-09-21T16:04:25;1.43;;;1.30;;
6537;SDS011;3302;52.508;13.454;2022-09-21T16:07:03;1.73;;;0.97;;
6537;SDS011;3302;52.508;13.454;2022-09-21T16:15:14;1.57;;;1.03;;
6537;SDS011;3302;52.508;13.454;2022-09-21T16:20:45;1.50;;;1.20;;
6537;SDS011;3302;52.508;13.454;2022-09-21T16:23:19;1.60;;;1.30;;
6537;SDS011;3302;52.508;13.454;2022-09-21T16:25:54;1.73;;;1.27;;
6537;SDS011;3302;52.508;13.454;2022-09-21T16:28:32;3.50;;;1.40;;
6537;SDS011;3302;52.508;13.454;2022-09-21T16:31:20;1.93;;;1.10;;
6537;SDS011;3302;52.508;13.454;2022-09-21T16:38:50;1.90;;;1.50;;
6537;SDS011;3302;52.508;13.454;2022-09-21T16:41:23;1.33;;;1.00;;
6537;SDS011;3302;52.508;13.454;2022-09-21T16:43:56;1.90;;;1.23;;
6537;SDS011;3302;52.508;13.454;2022-09-21T16:46:22;4.43;;;1.70;;
6537;SDS011;3302;52.508;13.454;2022-09-21T16:48:50;2.00;;;1.23;;
6537;SDS011;3302;52.508;13.454;2022-09-21T16:51:16;2.77;;;1.60;;
6537;SDS011;3302;52.508;13.454;2022-09-21T16:53:46;2.30;;;1.90;;
6537;SDS011;3302;52.508;13.454;2022-09-21T16:56:12;2.30;;;1.83;;
6537;SDS011;3302;52.508;13.454;2022-09-21T16:58:43;2.00;;;1.60;;
6537;SDS011;3302;52.508;13.454;2022-09-21T17:01:16;2.87;;;1.50;;
6537;SDS011;3302;52.508;13.454;2022-09-21T17:03:46;2.13;;;1.50;;
6537;SDS011;3302;52.508;13.454;2022-09-21T17:08:42;2.00;;;1.50;;
6537;SDS011;3302;52.508;13.454;2022-09-21T17:11:08;2.23;;;1.67;;
6537;SDS011;3302;52.508;13.454;2022-09-21T17:13:34;2.67;;;1.50;;
6537;SDS011;3302;52.508;13.454;2022-09-21T17:16:02;1.73;;;1.60;;
6537;SDS011;3302;52.508;13.454;2022-09-21T17:18:29;3.20;;;1.77;;
6537;SDS011;3302;52.508;13.454;2022-09-21T17:20:54;2.30;;;1.87;;
6537;SDS011;3302;52.508;13.454;2022-09-21T17:23:20;3.87;;;1.63;;
6537;SDS011;3302;52.508;13.454;2022-09-21T17:25:51;2.20;;;1.60;;
6537;SDS011;3302;52.508;13.454;2022-09-21T17:28:17;2.10;;;1.90;;
6537;SDS011;3302;52.508;13.454;2022-09-21T17:30:49;3.20;;;2.03;;
6537;SDS011;3302;52.508;13.454;2022-09-21T17:33:19;3.50;;;2.10;;
6537;SDS011;3302;52.508;13.454;2022-09-21T17:35:47;4.13;;;2.43;;
6537;SDS011;3302;52.508;13.454;2022-09-21T17:38:20;3.00;;;2.60;;
6537;SDS011;3302;52.508;13.454;2022-09-21T17:40:46;3.77;;;2.30;;
6537;SDS011;3302;52.508;13.454;2022-09-21T17:45:39;3.67;;;2.20;;
6537;SDS011;3302;52.508;13.454;2022-09-21T17:48:12;2.40;;;2.17;;
6537;SDS011;3302;52.508;13.454;2022-09-21T17:50:42;3.77;;;2.30;;
6537;SDS011;3302;52.508;13.454;2022-09-21T17:53:08;3.57;;;2.53;;
6537;SDS011;3302;52.508;13.454;2022-09-21T17:55:54;4.97;;;2.90;;
6537;SDS011;3302;52.508;13.454;2022-09-21T18:04:00;4.23;;;2.90;;
6537;SDS011;3302;52.508;13.454;2022-09-21T18:06:27;3.40;;;2.57;;
6537;SDS011;3302;52.508;13.454;2022-09-21T18:08:53;4.73;;;3.20;;
6537;SDS011;3302;52.508;13.454;2022-09-21T18:16:33;4.93;;;3.50;;
6537;SDS011;3302;52.508;13.454;2022-09-21T18:19:26;5.40;;;3.53;;
6537;SDS011;3302;52.508;13.454;2022-09-21T18:22:14;4.00;;;3.23;;
6537;SDS011;3302;52.508;13.454;2022-09-21T18:24:42;4.30;;;3.60;;
6537;SDS011;3302;52.508;13.454;2022-09-21T18:27:08;5.70;;;3.77;;
6537;SDS011;3302;52.508;13.454;2022-09-21T18:29:36;5.97;;;3.60;;
6537;SDS011;3302;52.508;13.454;2022-09-21T18:35:12;5.47;;;3.40;;
6537;SDS011;3302;52.508;13.454;2022-09-21T18:37:59;6.37;;;3.57;;
6537;SDS011;3302;52.508;13.454;2022-09-21T18:43:28;4.47;;;3.17;;
6537;SDS011;3302;52.508;13.454;2022-09-21T18:46:20;4.83;;;3.63;;
6537;SDS011;3302;52.508;13.454;2022-09-21T18:49:01;5.30;;;4.00;;
6537;SDS011;3302;52.508;13.454;2022-09-21T18:51:33;7.30;;;4.87;;
6537;SDS011;3302;52.508;13.454;2022-09-21T18:54:11;6.93;;;4.97;;
6537;SDS011;3302;52.508;13.454;2022-09-21T18:56:43;5.87;;;4.33;;
6537;SDS011;3302;52.508;13.454;2022-09-21T18:59:09;5.50;;;4.20;;
6537;SDS011;3302;52.508;13.454;2022-09-21T19:01:36;5.27;;;3.70;;